createdAt,value
2016-04-26T00:00:27.357Z,993.23
2016-04-26T00:01:27.375Z,993.2
2016-04-26T00:02:27.409Z,993.22
2016-04-26T00:03:27.442Z,993.18
2016-04-26T00:04:27.461Z,993.15
2016-04-26T00:05:27.483Z,993.14
2016-04-26T00:06:27.518Z,993.18
2016-04-26T00:07:27.535Z,993.19
2016-04-26T00:08:27.570Z,993.14
2016-04-26T00:09:27.587Z,993.19
2016-04-26T00:10:27.621Z,993.14
2016-04-26T00:11:27.640Z,993.2
2016-04-26T00:12:27.673Z,993.15
2016-04-26T00:13:27.692Z,993.13
2016-04-26T00:14:27.726Z,993.07
2016-04-26T00:15:27.760Z,993.12
2016-04-26T00:16:27.778Z,993.08
2016-04-26T00:17:27.812Z,993.09
2016-04-26T00:18:27.831Z,993.12
2016-04-26T00:19:27.865Z,993.11
2016-04-26T00:20:27.898Z,993.07
2016-04-26T00:21:27.917Z,993.05
2016-04-26T00:22:27.935Z,993.03
2016-04-26T00:23:27.969Z,993.01
2016-04-26T00:24:28.003Z,993.02
2016-04-26T00:25:28.022Z,992.98
2016-04-26T00:26:28.055Z,993.03
2016-04-26T00:27:28.074Z,993.05
2016-04-26T00:28:28.108Z,993.09
2016-04-26T00:29:28.126Z,993.08
2016-04-26T00:30:28.160Z,992.99
2016-04-26T00:31:28.178Z,993
2016-04-26T00:32:28.213Z,993
2016-04-26T00:33:28.230Z,993.02
2016-04-26T00:34:28.265Z,993.01
2016-04-26T00:35:28.298Z,992.96
2016-04-26T00:36:28.316Z,992.92
2016-04-26T00:37:28.335Z,992.93
2016-04-26T00:38:28.369Z,992.94
2016-04-26T00:39:28.403Z,992.9
2016-04-26T00:40:28.421Z,992.92
2016-04-26T00:41:28.455Z,992.88
2016-04-26T00:42:28.473Z,992.93
2016-04-26T00:43:28.507Z,992.91
2016-04-26T00:44:28.525Z,992.92
2016-04-26T00:45:28.559Z,992.85
2016-04-26T00:46:28.593Z,992.88
2016-04-26T00:47:28.611Z,992.79
2016-04-26T00:48:28.646Z,992.89
2016-04-26T00:49:28.664Z,992.86
2016-04-26T00:50:28.682Z,992.82
2016-04-26T00:51:28.717Z,992.84
2016-04-26T00:52:28.750Z,992.81
2016-04-26T00:53:28.784Z,992.85
2016-04-26T00:54:28.787Z,992.85
2016-04-26T00:55:28.821Z,992.88
2016-04-26T00:56:28.855Z,992.87
2016-04-26T00:57:28.872Z,992.87
2016-04-26T00:58:28.907Z,992.88
2016-04-26T00:59:28.941Z,992.94
2016-04-26T01:00:28.975Z,992.91
2016-04-26T01:01:29.040Z,992.88
2016-04-26T01:02:29.011Z,992.84
2016-04-26T01:03:29.029Z,992.85
2016-04-26T01:04:29.064Z,992.86
2016-04-26T01:05:29.083Z,992.81
2016-04-26T01:06:29.147Z,992.84
2016-04-26T01:07:29.150Z,992.87
2016-04-26T01:08:29.168Z,992.82
2016-04-26T01:09:29.202Z,992.85
2016-04-26T01:10:29.220Z,992.82
2016-04-26T01:11:29.255Z,992.81
2016-04-26T01:12:29.273Z,992.83
2016-04-26T01:13:29.306Z,992.78
2016-04-26T01:14:29.326Z,992.77
2016-04-26T01:15:29.359Z,992.76
2016-04-26T01:16:29.378Z,992.82
2016-04-26T01:17:29.396Z,992.83
2016-04-26T01:18:29.429Z,992.81
2016-04-26T01:19:29.448Z,992.8
2016-04-26T01:20:29.482Z,992.77
2016-04-26T01:21:29.500Z,992.84
2016-04-26T01:22:29.533Z,992.8
2016-04-26T01:23:29.568Z,992.83
2016-04-26T01:24:29.586Z,992.82
2016-04-26T01:25:29.605Z,992.78
2016-04-26T01:26:29.639Z,992.81
2016-04-26T01:27:29.688Z,992.82
2016-04-26T01:28:29.691Z,992.8
2016-04-26T01:29:29.709Z,992.77
2016-04-26T01:30:29.759Z,992.82
2016-04-26T01:31:29.761Z,992.83
2016-04-26T01:32:29.811Z,992.87
2016-04-26T01:33:29.829Z,992.78
2016-04-26T01:34:29.847Z,992.83
2016-04-26T01:35:29.866Z,992.82
2016-04-26T01:36:29.900Z,992.78
2016-04-26T01:37:29.949Z,992.77
2016-04-26T01:38:29.952Z,992.75
2016-04-26T01:39:29.986Z,992.76
2016-04-26T01:40:30.005Z,992.73
2016-04-26T01:41:30.023Z,992.74
2016-04-26T01:42:30.056Z,992.71
2016-04-26T01:43:30.091Z,992.7
2016-04-26T01:44:30.109Z,992.69
2016-04-26T01:45:30.143Z,992.68
2016-04-26T01:46:30.161Z,992.67
2016-04-26T01:47:30.196Z,992.65
2016-04-26T01:48:30.214Z,992.64
2016-04-26T01:50:30.265Z,992.65
2016-04-26T01:51:30.284Z,992.64
2016-04-26T01:52:30.317Z,992.59
2016-04-26T01:53:30.353Z,992.59
2016-04-26T01:54:30.370Z,992.62
2016-04-26T01:55:30.403Z,992.65
2016-04-26T01:56:30.423Z,992.61
2016-04-26T01:57:30.441Z,992.65
2016-04-26T01:58:30.474Z,992.62
2016-04-26T01:59:30.509Z,992.67
2016-04-26T02:00:30.527Z,992.69
2016-04-26T02:01:30.545Z,992.65
2016-04-26T02:02:30.580Z,992.64
2016-04-26T02:03:30.597Z,992.67
2016-04-26T02:04:30.616Z,992.66
2016-04-26T02:05:30.650Z,992.69
2016-04-26T02:06:30.683Z,992.63
2016-04-26T02:07:30.719Z,992.66
2016-04-26T02:08:30.736Z,992.63
2016-04-26T02:09:30.754Z,992.66
2016-04-26T02:10:30.789Z,992.68
2016-04-26T02:11:30.807Z,992.62
2016-04-26T02:12:30.824Z,992.6
2016-04-26T02:13:30.859Z,992.56
2016-04-26T02:14:30.877Z,992.55
2016-04-26T02:15:30.911Z,992.53
2016-04-26T02:16:30.929Z,992.54
2016-04-26T02:17:31.057Z,992.5
2016-04-26T02:18:30.982Z,992.5
2016-04-26T02:19:31.031Z,992.53
2016-04-26T02:20:31.034Z,992.5
2016-04-26T02:21:31.068Z,992.52
2016-04-26T02:22:31.086Z,992.52
2016-04-26T02:23:31.127Z,992.58
2016-04-26T02:24:31.146Z,992.55
2016-04-26T02:25:31.180Z,992.57
2016-04-26T02:26:31.197Z,992.56
2016-04-26T02:27:31.216Z,992.58
2016-04-26T02:28:31.313Z,992.57
2016-04-26T02:29:31.299Z,992.53
2016-04-26T02:30:31.302Z,992.56
2016-04-26T02:31:31.445Z,992.54
2016-04-26T02:32:31.777Z,992.54
2016-04-26T02:33:31.373Z,992.51
2016-04-26T02:34:31.406Z,992.51
2016-04-26T02:35:31.425Z,992.45
2016-04-26T02:36:31.443Z,992.47
2016-04-26T02:37:31.477Z,992.42
2016-04-26T02:38:31.511Z,992.39
2016-04-26T02:39:31.530Z,992.43
2016-04-26T02:40:31.548Z,992.41
2016-04-26T02:41:31.582Z,992.38
2016-04-26T02:42:31.600Z,992.39
2016-04-26T02:43:31.633Z,992.38
2016-04-26T02:44:31.653Z,992.38
2016-04-26T02:45:31.671Z,992.34
2016-04-26T02:46:31.751Z,992.41
2016-04-26T02:47:31.738Z,992.39
2016-04-26T02:48:31.757Z,992.41
2016-04-26T02:49:31.775Z,992.36
2016-04-26T02:50:31.808Z,992.36
2016-04-26T02:51:31.843Z,992.39
2016-04-26T02:52:31.862Z,992.36
2016-04-26T02:53:31.880Z,992.37
2016-04-26T02:54:31.913Z,992.32
2016-04-26T02:55:31.948Z,992.32
2016-04-26T02:56:31.965Z,992.33
2016-04-26T02:57:31.985Z,992.33
2016-04-26T02:58:32.018Z,992.33
2016-04-26T02:59:32.036Z,992.27
2016-04-26T03:00:32.071Z,992.27
2016-04-26T03:01:32.089Z,992.27
2016-04-26T03:02:32.279Z,992.31
2016-04-26T03:03:32.140Z,992.25
2016-04-26T03:04:32.160Z,992.23
2016-04-26T03:05:32.193Z,992.24
2016-04-26T03:06:32.227Z,992.23
2016-04-26T03:07:32.245Z,992.18
2016-04-26T03:08:32.264Z,992.23
2016-04-26T03:09:32.298Z,992.23
2016-04-26T03:10:32.315Z,992.2
2016-04-26T03:11:32.350Z,992.19
2016-04-26T03:12:32.368Z,992.16
2016-04-26T03:13:32.403Z,992.2
2016-04-26T03:14:32.420Z,992.15
2016-04-26T03:15:32.439Z,992.16
2016-04-26T03:16:32.472Z,992.12
2016-04-26T03:17:32.508Z,992.12
2016-04-26T03:18:32.526Z,992.07
2016-04-26T03:19:32.545Z,992.08
2016-04-26T03:20:32.578Z,992.04
2016-04-26T03:21:32.612Z,992.01
2016-04-26T03:22:32.631Z,991.98
2016-04-26T03:23:32.648Z,992
2016-04-26T03:24:32.683Z,991.98
2016-04-26T03:25:32.701Z,992
2016-04-26T03:26:32.735Z,991.99
2016-04-26T03:27:32.753Z,991.94
2016-04-26T03:28:32.787Z,991.87
2016-04-26T03:29:32.806Z,991.9
2016-04-26T03:30:32.824Z,991.97
2016-04-26T03:31:33.483Z,991.88
2016-04-26T03:32:32.876Z,991.82
2016-04-26T03:33:32.894Z,991.82
2016-04-26T03:34:32.928Z,991.82
2016-04-26T03:35:32.947Z,991.8
2016-04-26T03:36:32.980Z,991.75
2016-04-26T03:37:33.061Z,991.72
2016-04-26T03:38:33.033Z,991.74
2016-04-26T03:39:33.052Z,991.67
2016-04-26T03:40:33.085Z,991.66
2016-04-26T03:41:33.104Z,991.68
2016-04-26T03:42:33.138Z,991.66
2016-04-26T03:43:33.155Z,991.66
2016-04-26T03:44:33.190Z,991.71
2016-04-26T03:45:33.223Z,991.7
2016-04-26T03:46:33.243Z,991.69
2016-04-26T03:47:33.260Z,991.72
2016-04-26T03:48:33.309Z,991.69
2016-04-26T03:49:33.313Z,991.69
2016-04-26T03:50:33.331Z,991.69
2016-04-26T03:51:33.365Z,991.73
2016-04-26T03:52:33.384Z,991.72
2016-04-26T03:53:33.432Z,991.74
2016-04-26T03:54:33.435Z,991.69
2016-04-26T03:55:33.469Z,991.75
2016-04-26T03:56:33.503Z,991.73
2016-04-26T03:57:33.522Z,991.73
2016-04-26T03:58:33.539Z,991.69
2016-04-26T03:59:33.574Z,991.67
2016-04-26T04:00:33.592Z,991.65
2016-04-26T04:01:33.610Z,991.61
2016-04-26T04:02:33.645Z,991.65
2016-04-26T04:03:33.663Z,991.65
2016-04-26T04:04:33.696Z,991.6
2016-04-26T04:05:33.762Z,991.55
2016-04-26T04:06:33.749Z,991.56
2016-04-26T04:07:33.799Z,991.53
2016-04-26T04:08:33.802Z,991.51
2016-04-26T04:10:33.848Z,991.47
2016-04-26T04:11:33.866Z,991.46
2016-04-26T04:12:33.899Z,991.48
2016-04-26T04:13:33.918Z,991.49
2016-04-26T04:14:33.952Z,991.44
2016-04-26T04:15:34.001Z,991.45
2016-04-26T04:16:33.989Z,991.39
2016-04-26T04:17:34.023Z,991.41
2016-04-26T04:18:34.040Z,991.43
2016-04-26T04:19:34.075Z,991.4
2016-04-26T04:20:34.093Z,991.39
2016-04-26T04:21:34.127Z,991.4
2016-04-26T04:22:34.145Z,991.39
2016-04-26T04:23:34.179Z,991.37
2016-04-26T04:24:34.198Z,991.37
2016-04-26T04:25:34.231Z,991.39
2016-04-26T04:26:34.250Z,991.37
2016-04-26T04:27:34.269Z,991.39
2016-04-26T04:28:34.302Z,991.31
2016-04-26T04:29:34.336Z,991.34
2016-04-26T04:30:34.354Z,991.36
2016-04-26T04:31:34.373Z,991.38
2016-04-26T04:32:34.408Z,991.38
2016-04-26T04:33:34.425Z,991.41
2016-04-26T04:34:34.475Z,991.4
2016-04-26T04:35:34.477Z,991.39
2016-04-26T04:36:34.511Z,991.4
2016-04-26T04:37:34.545Z,991.34
2016-04-26T04:38:34.563Z,991.41
2016-04-26T04:39:34.582Z,991.38
2016-04-26T04:40:34.632Z,991.37
2016-04-26T04:41:34.634Z,991.34
2016-04-26T04:42:34.668Z,991.34
2016-04-26T04:43:34.702Z,991.27
2016-04-26T04:44:34.704Z,991.25
2016-04-26T04:45:34.738Z,991.24
2016-04-26T04:46:34.757Z,991.3
2016-04-26T04:47:34.790Z,991.26
2016-04-26T04:48:34.809Z,991.22
2016-04-26T04:49:34.843Z,991.23
2016-04-26T04:50:34.861Z,991.19
2016-04-26T04:51:34.895Z,991.16
2016-04-26T04:52:34.914Z,991.19
2016-04-26T04:53:34.994Z,991.2
2016-04-26T04:54:34.966Z,991.15
2016-04-26T04:55:35.000Z,991.11
2016-04-26T04:56:35.017Z,991.13
2016-04-26T04:57:35.052Z,991.11
2016-04-26T04:58:35.102Z,991.09
2016-04-26T04:59:35.105Z,991.06
2016-04-26T05:00:35.122Z,991.06
2016-04-26T05:01:35.156Z,991.02
2016-04-26T05:02:35.175Z,991.03
2016-04-26T05:03:35.208Z,990.98
2016-04-26T05:04:35.243Z,991.02
2016-04-26T05:05:35.277Z,990.99
2016-04-26T05:06:35.294Z,990.99
2016-04-26T05:07:35.361Z,990.95
2016-04-26T05:08:35.378Z,990.97
2016-04-26T05:09:35.366Z,990.95
2016-04-26T05:10:35.385Z,990.95
2016-04-26T05:11:35.418Z,990.96
2016-04-26T05:12:35.452Z,991.02
2016-04-26T05:13:35.470Z,991.01
2016-04-26T05:14:35.488Z,991.03
2016-04-26T05:15:35.507Z,990.99
2016-04-26T05:16:35.540Z,990.99
2016-04-26T05:17:35.574Z,990.98
2016-04-26T05:18:35.592Z,990.95
2016-04-26T05:19:35.627Z,990.92
2016-04-26T05:20:35.646Z,990.95
2016-04-26T05:21:35.695Z,990.88
2016-04-26T05:22:35.698Z,990.87
2016-04-26T05:23:35.778Z,990.9
2016-04-26T05:24:35.750Z,990.86
2016-04-26T05:25:35.784Z,990.82
2016-04-26T05:26:35.802Z,990.84
2016-04-26T05:27:35.836Z,990.83
2016-04-26T05:28:35.854Z,990.83
2016-04-26T05:29:35.889Z,990.74
2016-04-26T05:30:35.938Z,990.8
2016-04-26T05:31:35.941Z,990.79
2016-04-26T05:32:35.975Z,990.78
2016-04-26T05:33:35.992Z,990.7
2016-04-26T05:34:36.027Z,990.74
2016-04-26T05:35:36.061Z,990.73
2016-04-26T05:36:36.063Z,990.72
2016-04-26T05:37:36.097Z,990.67
2016-04-26T05:38:36.130Z,990.72
2016-04-26T05:39:36.149Z,990.69
2016-04-26T05:40:36.183Z,990.7
2016-04-26T05:41:36.217Z,990.7
2016-04-26T05:42:36.235Z,990.65
2016-04-26T05:43:36.254Z,990.64
2016-04-26T05:44:36.288Z,990.61
2016-04-26T05:45:36.321Z,990.58
2016-04-26T05:46:36.340Z,990.53
2016-04-26T05:47:36.889Z,990.6
2016-04-26T05:48:36.407Z,990.62
2016-04-26T05:49:36.520Z,990.59
2016-04-26T05:50:36.445Z,990.65
2016-04-26T05:51:36.479Z,990.64
2016-04-26T05:52:36.512Z,990.64
2016-04-26T05:53:36.531Z,990.65
2016-04-26T05:54:36.549Z,990.63
2016-04-26T05:55:36.583Z,990.54
2016-04-26T05:56:36.601Z,990.61
2016-04-26T05:57:36.639Z,990.65
2016-04-26T05:58:36.662Z,990.61
2016-04-26T05:59:36.681Z,990.51
2016-04-26T06:00:36.777Z,990.59
2016-04-26T06:01:36.742Z,990.52
2016-04-26T06:02:36.761Z,990.47
2016-04-26T06:03:36.794Z,990.45
2016-04-26T06:04:36.813Z,990.46
2016-04-26T06:05:36.848Z,990.45
2016-04-26T06:06:36.866Z,990.49
2016-04-26T06:07:36.900Z,990.53
2016-04-26T06:08:36.918Z,990.51
2016-04-26T06:09:36.952Z,990.5
2016-04-26T06:10:36.985Z,990.55
2016-04-26T06:11:37.004Z,990.45
2016-04-26T06:12:37.038Z,990.45
2016-04-26T06:13:37.056Z,990.44
2016-04-26T06:14:37.090Z,990.43
2016-04-26T06:15:37.108Z,990.35
2016-04-26T06:16:37.158Z,990.44
2016-04-26T06:17:38.177Z,990.44
2016-04-26T06:18:37.195Z,990.35
2016-04-26T06:19:37.229Z,990.4
2016-04-26T06:20:37.278Z,990.44
2016-04-26T06:21:37.281Z,990.39
2016-04-26T06:22:37.318Z,990.35
2016-04-26T06:23:37.336Z,990.36
2016-04-26T06:24:37.418Z,990.28
2016-04-26T06:25:37.435Z,990.37
2016-04-26T06:26:37.423Z,990.36
2016-04-26T06:27:37.440Z,990.33
2016-04-26T06:28:37.474Z,990.45
2016-04-26T06:29:37.509Z,990.52
2016-04-26T06:30:37.527Z,990.54
2016-04-26T06:31:37.562Z,990.46
2016-04-26T06:32:37.610Z,990.46
2016-04-26T06:33:37.613Z,990.5
2016-04-26T06:34:37.881Z,990.4
2016-04-26T06:35:37.665Z,990.41
2016-04-26T06:36:37.700Z,990.47
2016-04-26T06:37:37.717Z,990.44
2016-04-26T06:38:37.751Z,990.46
2016-04-26T06:39:37.785Z,990.43
2016-04-26T06:40:37.804Z,990.49
2016-04-26T06:41:37.869Z,990.51
2016-04-26T06:42:37.855Z,990.52
2016-04-26T06:43:37.890Z,990.5
2016-04-26T06:44:37.955Z,990.46
2016-04-26T06:45:37.942Z,990.48
2016-04-26T06:46:37.977Z,990.41
2016-04-26T06:47:37.994Z,990.48
2016-04-26T06:48:38.028Z,990.42
2016-04-26T06:49:38.093Z,990.39
2016-04-26T06:50:38.065Z,990.38
2016-04-26T06:51:38.099Z,990.41
2016-04-26T06:52:38.117Z,990.42
2016-04-26T06:53:38.151Z,990.37
2016-04-26T06:54:38.185Z,990.4
2016-04-26T06:55:38.219Z,990.43
2016-04-26T06:56:38.284Z,990.38
2016-04-26T06:57:38.271Z,990.23
2016-04-26T06:58:38.289Z,990.33
2016-04-26T06:59:38.323Z,990.42
2016-04-26T07:00:38.342Z,990.42
2016-04-26T07:01:38.375Z,990.41
2016-04-26T07:02:38.394Z,990.45
2016-04-26T07:03:38.428Z,990.42
2016-04-26T07:04:38.462Z,990.38
2016-04-26T07:05:38.481Z,990.36
2016-04-26T07:06:38.515Z,990.38
2016-04-26T07:07:38.533Z,990.37
2016-04-26T07:08:38.567Z,990.39
2016-04-26T07:09:38.601Z,990.34
2016-04-26T07:10:38.619Z,990.42
2016-04-26T07:11:38.637Z,990.37
2016-04-26T07:12:38.686Z,990.29
2016-04-26T07:13:38.705Z,990.33
2016-04-26T07:14:38.723Z,990.34
2016-04-26T07:15:38.758Z,990.38
2016-04-26T07:16:38.775Z,990.34
2016-04-26T07:17:38.810Z,990.38
2016-04-26T07:18:38.844Z,990.32
2016-04-26T07:19:38.862Z,990.4
2016-04-26T07:20:38.880Z,990.36
2016-04-26T07:21:38.914Z,990.33
2016-04-26T07:22:38.937Z,990.36
2016-04-26T07:23:38.955Z,990.38
2016-04-26T07:24:38.989Z,990.36
2016-04-26T07:25:39.023Z,990.38
2016-04-26T07:26:39.042Z,990.33
2016-04-26T07:27:39.076Z,990.31
2016-04-26T07:28:39.110Z,990.29
2016-04-26T07:29:39.143Z,990.22
2016-04-26T07:30:39.146Z,990.29
2016-04-26T07:31:39.180Z,990.31
2016-04-26T07:32:39.198Z,990.31
2016-04-26T07:33:39.248Z,990.26
2016-04-26T07:34:39.266Z,990.23
2016-04-26T07:35:39.285Z,990.26
2016-04-26T07:36:39.302Z,990.3
2016-04-26T07:37:39.336Z,990.21
2016-04-26T07:38:39.387Z,990.29
2016-04-26T07:39:39.436Z,990.33
2016-04-26T07:40:39.470Z,990.28
2016-04-26T07:41:39.441Z,990.28
2016-04-26T07:42:40.850Z,990.31
2016-04-26T07:43:39.494Z,990.33
2016-04-26T07:44:39.527Z,990.34
2016-04-26T07:45:39.546Z,990.3
2016-04-26T07:46:39.579Z,990.36
2016-04-26T07:47:39.599Z,990.33
2016-04-26T07:48:39.632Z,990.36
2016-04-26T07:49:39.650Z,990.44
2016-04-26T07:50:39.700Z,990.33
2016-04-26T07:51:39.718Z,990.37
2016-04-26T07:52:39.737Z,990.38
2016-04-26T07:53:39.771Z,990.37
2016-04-26T07:54:39.788Z,990.4
2016-04-26T07:55:39.823Z,990.37
2016-04-26T07:56:39.856Z,990.42
2016-04-26T07:57:39.876Z,990.43
2016-04-26T07:58:39.910Z,990.46
2016-04-26T07:59:39.927Z,990.47
2016-04-26T08:00:39.962Z,990.38
2016-04-26T08:01:39.979Z,990.44
2016-04-26T08:02:40.028Z,990.47
2016-04-26T08:03:40.032Z,990.5
2016-04-26T08:04:40.065Z,990.42
2016-04-26T08:05:40.084Z,990.44
2016-04-26T08:06:40.117Z,990.5
2016-04-26T08:07:40.198Z,990.49
2016-04-26T08:08:40.170Z,990.49
2016-04-26T08:09:40.204Z,990.48
2016-04-26T08:10:40.223Z,990.4
2016-04-26T08:11:40.256Z,990.43
2016-04-26T08:12:40.275Z,990.43
2016-04-26T08:13:40.309Z,990.43
2016-04-26T08:14:40.358Z,990.35
2016-04-26T08:15:40.361Z,990.46
2016-04-26T08:16:40.394Z,990.39
2016-04-26T08:17:40.429Z,990.48
2016-04-26T08:18:40.447Z,990.44
2016-04-26T08:19:40.466Z,990.43
2016-04-26T08:20:40.563Z,990.36
2016-04-26T08:21:40.533Z,990.41
2016-04-26T08:22:40.552Z,990.35
2016-04-26T08:23:40.758Z,990.41
2016-04-26T08:24:40.604Z,990.35
2016-04-26T08:25:40.638Z,990.43
2016-04-26T08:26:40.656Z,990.39
2016-04-26T08:27:40.706Z,990.36
2016-04-26T08:28:40.715Z,990.38
2016-04-26T08:29:40.749Z,990.36
2016-04-26T08:30:40.770Z,990.29
2016-04-26T08:31:40.846Z,990.34
2016-04-26T08:32:40.922Z,990.35
2016-04-26T08:33:40.981Z,990.38
2016-04-26T08:34:41.073Z,990.39
2016-04-26T08:35:41.132Z,990.36
2016-04-26T08:36:41.180Z,990.36
2016-04-26T08:37:41.214Z,990.42
2016-04-26T08:38:41.263Z,990.39
2016-04-26T08:39:41.312Z,990.38
2016-04-26T08:40:41.344Z,990.42
2016-04-26T08:41:41.384Z,990.48
2016-04-26T08:42:41.423Z,990.55
2016-04-26T08:43:41.446Z,990.43
2016-04-26T08:44:41.471Z,990.53
2016-04-26T08:45:41.510Z,990.48
2016-04-26T08:46:41.545Z,990.48
2016-04-26T08:47:41.565Z,990.42
2016-04-26T08:48:41.601Z,990.39
2016-04-26T08:49:41.653Z,990.42
2016-04-26T08:50:41.674Z,990.45
2016-04-26T08:51:41.708Z,990.44
2016-04-26T08:52:41.758Z,990.45
2016-04-26T08:53:41.809Z,990.47
2016-04-26T08:54:41.813Z,990.45
2016-04-26T08:55:41.816Z,990.34
2016-04-26T08:56:41.850Z,990.39
2016-04-26T08:57:41.884Z,990.35
2016-04-26T08:58:41.904Z,990.47
2016-04-26T08:59:42.094Z,990.38
2016-04-26T09:00:41.971Z,990.44
2016-04-26T09:01:42.005Z,990.42
2016-04-26T09:02:42.039Z,990.5
2016-04-26T09:03:42.058Z,990.43
2016-04-26T09:04:42.092Z,990.55
2016-04-26T09:05:42.125Z,990.4
2016-04-26T09:06:42.160Z,990.43
2016-04-26T09:07:42.178Z,990.42
2016-04-26T09:08:42.212Z,990.4
2016-04-26T09:09:42.245Z,990.46
2016-04-26T09:10:42.279Z,990.39
2016-04-26T09:11:42.298Z,990.39
2016-04-26T09:12:42.332Z,990.36
2016-04-26T09:13:42.366Z,990.38
2016-04-26T09:14:42.384Z,990.41
2016-04-26T09:15:42.417Z,990.27
2016-04-26T09:16:42.452Z,990.34
2016-04-26T09:17:42.470Z,990.29
2016-04-26T09:18:42.520Z,990.31
2016-04-26T09:19:42.538Z,990.32
2016-04-26T09:20:42.572Z,990.33
2016-04-26T09:21:42.606Z,990.14
2016-04-26T09:22:42.641Z,990.3
2016-04-26T09:23:42.658Z,990.29
2016-04-26T09:24:42.691Z,990.21
2016-04-26T09:25:42.727Z,990.24
2016-04-26T09:26:42.760Z,990.25
2016-04-26T09:27:42.794Z,990.22
2016-04-26T09:28:42.875Z,990.23
2016-04-26T09:29:42.862Z,990.27
2016-04-26T09:30:42.880Z,990.28
2016-04-26T09:31:42.914Z,990.19
2016-04-26T09:32:43.463Z,990.21
2016-04-26T09:33:42.982Z,990.21
2016-04-26T09:34:43.016Z,990.12
2016-04-26T09:35:43.034Z,990.14
2016-04-26T09:36:43.069Z,990.08
2016-04-26T09:37:43.118Z,990.13
2016-04-26T09:38:43.151Z,990.16
2016-04-26T09:39:43.170Z,990.15
2016-04-26T09:40:43.204Z,990.12
2016-04-26T09:41:43.238Z,990.12
2016-04-26T09:42:43.303Z,990.15
2016-04-26T09:43:43.290Z,990.17
2016-04-26T09:44:43.325Z,990.11
2016-04-26T09:45:43.342Z,990.17
2016-04-26T09:46:43.376Z,990.16
2016-04-26T09:47:43.425Z,990.17
2016-04-26T09:48:43.491Z,990.13
2016-04-26T09:49:43.478Z,990.16
2016-04-26T09:50:43.512Z,990.12
2016-04-26T09:51:43.547Z,990.12
2016-04-26T09:52:43.580Z,990.1
2016-04-26T09:53:43.614Z,990.17
2016-04-26T09:54:43.633Z,990.05
2016-04-26T09:55:43.667Z,989.98
2016-04-26T09:56:43.684Z,989.98
2016-04-26T09:57:43.780Z,989.94
2016-04-26T09:58:43.768Z,989.84
2016-04-26T09:59:43.802Z,989.88
2016-04-26T10:00:43.993Z,989.93
2016-04-26T10:01:43.854Z,989.89
2016-04-26T10:02:43.873Z,989.91
2016-04-26T10:03:44.922Z,989.97
2016-04-26T10:04:43.924Z,989.94
2016-04-26T10:05:43.959Z,990
2016-04-26T10:06:43.993Z,989.98
2016-04-26T10:07:44.027Z,989.96
2016-04-26T10:08:44.045Z,989.95
2016-04-26T10:09:44.079Z,989.93
2016-04-26T10:10:44.097Z,989.81
2016-04-26T10:11:44.148Z,989.9
2016-04-26T10:12:44.181Z,989.98
2016-04-26T10:13:44.199Z,989.89
2016-04-26T10:14:44.233Z,989.9
2016-04-26T10:15:44.251Z,989.88
2016-04-26T10:16:44.300Z,989.91
2016-04-26T10:17:44.304Z,989.89
2016-04-26T10:18:44.337Z,989.84
2016-04-26T10:19:44.372Z,989.8
2016-04-26T10:20:44.406Z,989.81
2016-04-26T10:21:44.424Z,989.81
2016-04-26T10:22:44.519Z,989.78
2016-04-26T10:23:44.476Z,989.77
2016-04-26T10:24:44.511Z,989.75
2016-04-26T10:25:44.559Z,989.7
2016-04-26T10:26:44.625Z,989.74
2016-04-26T10:27:44.597Z,989.81
2016-04-26T10:28:44.630Z,989.73
2016-04-26T10:29:44.664Z,989.63
2016-04-26T10:30:44.682Z,989.7
2016-04-26T10:31:44.717Z,989.73
2016-04-26T10:32:44.750Z,989.68
2016-04-26T10:33:44.769Z,989.65
2016-04-26T10:34:44.803Z,989.67
2016-04-26T10:35:44.899Z,989.77
2016-04-26T10:36:44.854Z,989.65
2016-04-26T10:37:44.889Z,989.67
2016-04-26T10:38:44.906Z,989.74
2016-04-26T10:39:44.941Z,989.75
2016-04-26T10:40:44.975Z,989.8
2016-04-26T10:41:44.993Z,989.88
2016-04-26T10:42:45.026Z,990.02
2016-04-26T10:43:45.061Z,989.97
2016-04-26T10:44:45.095Z,989.98
2016-04-26T10:45:45.129Z,990
2016-04-26T10:46:45.147Z,990.09
2016-04-26T10:47:45.181Z,990.11
2016-04-26T10:48:45.215Z,990.06
2016-04-26T10:49:45.233Z,990.16
2016-04-26T10:50:45.268Z,990.18
2016-04-26T10:51:45.286Z,990.14
2016-04-26T10:52:45.319Z,990.13
2016-04-26T10:53:45.353Z,990.12
2016-04-26T10:54:45.388Z,990.15
2016-04-26T10:55:45.405Z,990.11
2016-04-26T10:56:45.440Z,990.08
2016-04-26T10:57:45.474Z,990.16
2016-04-26T10:58:45.492Z,990.1
2016-04-26T10:59:45.526Z,990.02
2016-04-26T11:00:45.544Z,990.07
2016-04-26T11:01:45.578Z,990.1
2016-04-26T11:02:45.613Z,990.1
2016-04-26T11:03:45.647Z,990.03
2016-04-26T11:04:45.665Z,990.01
2016-04-26T11:05:45.698Z,989.97
2016-04-26T11:06:45.733Z,989.98
2016-04-26T11:07:45.766Z,989.94
2016-04-26T11:08:45.832Z,989.99
2016-04-26T11:09:45.850Z,990.01
2016-04-26T11:10:45.962Z,989.94
2016-04-26T11:11:45.918Z,989.95
2016-04-26T11:12:45.936Z,989.99
2016-04-26T11:13:45.971Z,989.81
2016-04-26T11:14:45.988Z,989.94
2016-04-26T11:15:46.023Z,989.99
2016-04-26T11:16:46.072Z,990.08
2016-04-26T11:17:46.090Z,990.16
2016-04-26T11:18:46.124Z,989.95
2016-04-26T11:19:46.173Z,989.97
2016-04-26T11:20:46.254Z,990
2016-04-26T11:21:46.226Z,990
2016-04-26T11:22:46.275Z,990.07
2016-04-26T11:23:46.294Z,990.05
2016-04-26T11:24:46.344Z,990.04
2016-04-26T11:25:46.362Z,990.05
2016-04-26T11:26:46.395Z,990.01
2016-04-26T11:27:46.430Z,990.01
2016-04-26T11:28:46.464Z,989.99
2016-04-26T11:29:46.561Z,989.95
2016-04-26T11:30:46.594Z,990.04
2016-04-26T11:31:46.581Z,990.02
2016-04-26T11:32:46.661Z,989.97
2016-04-26T11:33:46.649Z,989.98
2016-04-26T11:34:46.699Z,990.01
2016-04-26T11:35:46.717Z,989.99
2016-04-26T11:36:46.751Z,990.08
2016-04-26T11:37:46.799Z,990.1
2016-04-26T11:38:46.882Z,990.17
2016-04-26T11:39:46.852Z,990.23
2016-04-26T11:40:46.887Z,990.11
2016-04-26T11:41:46.936Z,990.08
2016-04-26T11:42:46.970Z,990.03
2016-04-26T11:43:47.003Z,990.09
2016-04-26T11:44:47.022Z,990.24
2016-04-26T11:45:47.072Z,990.24
2016-04-26T11:46:47.106Z,990
2016-04-26T11:47:47.140Z,990
2016-04-26T11:48:47.221Z,990.03
2016-04-26T11:49:47.254Z,989.94
2016-04-26T11:50:47.226Z,989.97
2016-04-26T11:51:47.275Z,989.95
2016-04-26T11:52:47.309Z,989.87
2016-04-26T11:53:47.328Z,989.9
2016-04-26T11:54:47.378Z,989.87
2016-04-26T11:55:47.412Z,990
2016-04-26T11:56:47.445Z,989.95
2016-04-26T11:57:47.478Z,989.89
2016-04-26T11:58:47.513Z,989.85
2016-04-26T11:59:47.547Z,989.84
2016-04-26T12:00:47.580Z,989.98
2016-04-26T12:01:47.677Z,989.93
2016-04-26T12:02:47.649Z,989.96
2016-04-26T12:03:47.917Z,989.97
2016-04-26T12:04:47.716Z,990.03
2016-04-26T12:05:47.813Z,990.09
2016-04-26T12:06:47.785Z,990.12
2016-04-26T12:07:47.819Z,990.11
2016-04-26T12:08:47.883Z,990.19
2016-04-26T12:09:47.933Z,990.09
2016-04-26T12:10:47.967Z,990.07
2016-04-26T12:11:48.064Z,990.05
2016-04-26T12:12:47.988Z,990.1
2016-04-26T12:13:48.021Z,990.09
2016-04-26T12:14:48.056Z,990.12
2016-04-26T12:15:48.137Z,990.12
2016-04-26T12:16:48.108Z,990.11
2016-04-26T12:17:48.158Z,990.13
2016-04-26T12:18:48.176Z,990.13
2016-04-26T12:19:48.210Z,990.05
2016-04-26T12:20:48.290Z,990.04
2016-04-26T12:21:48.293Z,990.01
2016-04-26T12:22:48.358Z,989.98
2016-04-26T12:23:48.345Z,989.85
2016-04-26T12:24:48.364Z,989.86
2016-04-26T12:25:48.414Z,989.9
2016-04-26T12:26:48.431Z,989.77
2016-04-26T12:27:48.466Z,989.84
2016-04-26T12:28:48.500Z,989.81
2016-04-26T12:29:48.581Z,989.86
2016-04-26T12:30:48.599Z,989.89
2016-04-26T12:31:48.649Z,989.89
2016-04-26T12:32:48.620Z,989.96
2016-04-26T12:33:48.700Z,989.93